sensor_id;sensor_type;location;lat;lon;timestamp;temperature;humidity
15259;DHT22;34462;51.368;12.364;2022-11-20T00:01:33;-2.70;99.90
15259;DHT22;34462;51.368;12.364;2022-11-20T00:04:01;-2.70;99.90
15259;DHT22;34462;51.368;12.364;2022-11-20T00:06:30;-2.70;99.90
15259;DHT22;34462;51.368;12.364;2022-11-20T00:08:59;-2.70;99.90
15259;DHT22;34462;51.368;12.364;2022-11-20T00:11:30;-2.70;99.90
15259;DHT22;34462;51.368;12.364;2022-11-20T00:14:01;-2.80;99.90
15259;DHT22;34462;51.368;12.364;2022-11-20T00:16:32;-2.80;99.90
15259;DHT22;34462;51.368;12.364;2022-11-20T00:19:00;-2.80;99.90
15259;DHT22;34462;51.368;12.364;2022-11-20T00:21:29;-2.90;99.90
15259;DHT22;34462;51.368;12.364;2022-11-20T00:23:58;-2.90;99.90
15259;DHT22;34462;51.368;12.364;2022-11-20T00:26:27;-2.90;99.90
15259;DHT22;34462;51.368;12.364;2022-11-20T00:28:58;-2.90;99.90
15259;DHT22;34462;51.368;12.364;2022-11-20T00:31:30;-2.90;99.90
15259;DHT22;34462;51.368;12.364;2022-11-20T00:33:59;-3.00;99.90
15259;DHT22;34462;51.368;12.364;2022-11-20T00:36:31;-3.00;99.90
15259;DHT22;34462;51.368;12.364;2022-11-20T00:39:01;-3.00;99.90
15259;DHT22;34462;51.368;12.364;2022-11-20T00:41:29;-3.00;99.90
15259;DHT22;34462;51.368;12.364;2022-11-20T00:43:58;-3.00;99.90
15259;DHT22;34462;51.368;12.364;2022-11-20T00:46:28;-3.00;99.90
15259;DHT22;34462;51.368;12.364;2022-11-20T00:48:57;-3.00;99.90
15259;DHT22;34462;51.368;12.364;2022-11-20T00:51:27;-3.00;99.90
15259;DHT22;34462;51.368;12.364;2022-11-20T00:53:56;-3.00;99.90
15259;DHT22;34462;51.368;12.364;2022-11-20T00:56:26;-3.00;99.90
15259;DHT22;34462;51.368;12.364;2022-11-20T00:58:55;-3.10;99.90
15259;DHT22;34462;51.368;12.364;2022-11-20T01:01:24;-3.20;99.90
15259;DHT22;34462;51.368;12.364;2022-11-20T01:03:58;-3.20;99.90
15259;DHT22;34462;51.368;12.364;2022-11-20T01:06:29;-3.20;99.90
15259;DHT22;34462;51.368;12.364;2022-11-20T01:09:01;-3.10;99.90
15259;DHT22;34462;51.368;12.364;2022-11-20T01:11:33;-3.10;99.90
15259;DHT22;34462;51.368;12.364;2022-11-20T01:14:04;-3.10;99.90
15259;DHT22;34462;51.368;12.364;2022-11-20T01:16:35;-3.10;99.90
15259;DHT22;34462;51.368;12.364;2022-11-20T01:19:09;-3.10;99.90
15259;DHT22;34462;51.368;12.364;2022-11-20T01:21:44;-3.10;99.90
15259;DHT22;34462;51.368;12.364;2022-11-20T01:24:17;-3.10;99.90
15259;DHT22;34462;51.368;12.364;2022-11-20T01:26:48;-3.10;99.90
15259;DHT22;34462;51.368;12.364;2022-11-20T01:29:20;-3.20;99.90
15259;DHT22;34462;51.368;12.364;2022-11-20T01:31:50;-3.20;99.90
15259;DHT22;34462;51.368;12.364;2022-11-20T01:34:21;-3.20;99.90
15259;DHT22;34462;51.368;12.364;2022-11-20T01:36:50;-3.20;99.90
15259;DHT22;34462;51.368;12.364;2022-11-20T01:39:21;-3.20;99.90
15259;DHT22;34462;51.368;12.364;2022-11-20T01:41:52;-3.20;99.90
15259;DHT22;34462;51.368;12.364;2022-11-20T01:44:52;-3.30;99.90
15259;DHT22;34462;51.368;12.364;2022-11-20T01:47:28;-3.30;99.90
15259;DHT22;34462;51.368;12.364;2022-11-20T01:50:05;-3.30;99.90
15259;DHT22;34462;51.368;12.364;2022-11-20T01:52:42;-3.20;99.90
15259;DHT22;34462;51.368;12.364;2022-11-20T01:55:19;-3.20;99.90
15259;DHT22;34462;51.368;12.364;2022-11-20T01:57:50;-3.30;99.90
15259;DHT22;34462;51.368;12.364;2022-11-20T02:00:20;-3.30;99.90
15259;DHT22;34462;51.368;12.364;2022-11-20T02:02:53;-3.30;99.90
15259;DHT22;34462;51.368;12.364;2022-11-20T02:05:28;-3.20;99.90
15259;DHT22;34462;51.368;12.364;2022-11-20T02:08:03;-3.40;99.90
15259;DHT22;34462;51.368;12.364;2022-11-20T02:10:34;-3.50;99.90
15259;DHT22;34462;51.368;12.364;2022-11-20T02:13:03;-3.40;99.90
15259;DHT22;34462;51.368;12.364;2022-11-20T02:15:49;-3.40;99.90
15259;DHT22;34462;51.368;12.364;2022-11-20T02:18:20;-3.50;99.90
15259;DHT22;34462;51.368;12.364;2022-11-20T02:20:54;-3.50;99.90
15259;DHT22;34462;51.368;12.364;2022-11-20T02:23:32;-3.50;99.90
15259;DHT22;34462;51.368;12.364;2022-11-20T02:26:07;-3.50;99.90
15259;DHT22;34462;51.368;12.364;2022-11-20T02:28:39;-3.50;99.90
15259;DHT22;34462;51.368;12.364;2022-11-20T02:31:08;-3.50;99.90
15259;DHT22;34462;51.368;12.364;2022-11-20T02:33:36;-3.40;99.90
15259;DHT22;34462;51.368;12.364;2022-11-20T02:36:05;-3.50;99.90
15259;DHT22;34462;51.368;12.364;2022-11-20T02:38:36;-3.50;99.90
15259;DHT22;34462;51.368;12.364;2022-11-20T02:41:05;-3.50;99.90
15259;DHT22;34462;51.368;12.364;2022-11-20T02:43:33;-3.50;99.90
15259;DHT22;34462;51.368;12.364;2022-11-20T02:46:01;-3.50;99.90
15259;DHT22;34462;51.368;12.364;2022-11-20T02:48:29;-3.50;99.90
15259;DHT22;34462;51.368;12.364;2022-11-20T02:50:59;-3.50;99.90
15259;DHT22;34462;51.368;12.364;2022-11-20T02:53:28;-3.50;99.90
15259;DHT22;34462;51.368;12.364;2022-11-20T02:55:56;-3.40;99.90
15259;DHT22;34462;51.368;12.364;2022-11-20T02:58:26;-3.50;99.90
15259;DHT22;34462;51.368;12.364;2022-11-20T03:00:54;-3.50;99.90
15259;DHT22;34462;51.368;12.364;2022-11-20T03:03:22;-3.40;99.90
15259;DHT22;34462;51.368;12.364;2022-11-20T03:05:50;-3.50;99.90
15259;DHT22;34462;51.368;12.364;2022-11-20T03:08:18;-3.50;99.90
15259;DHT22;34462;51.368;12.364;2022-11-20T03:10:46;-3.50;99.90
15259;DHT22;34462;51.368;12.364;2022-11-20T03:13:14;-3.50;99.90
15259;DHT22;34462;51.368;12.364;2022-11-20T03:15:44;-3.50;99.90
15259;DHT22;34462;51.368;12.364;2022-11-20T03:18:12;-3.50;99.90
15259;DHT22;34462;51.368;12.364;2022-11-20T03:20:41;-3.40;99.90
15259;DHT22;34462;51.368;12.364;2022-11-20T03:23:09;-3.50;99.90
15259;DHT22;34462;51.368;12.364;2022-11-20T03:25:37;-3.60;99.90
15259;DHT22;34462;51.368;12.364;2022-11-20T03:28:05;-3.50;99.90
15259;DHT22;34462;51.368;12.364;2022-11-20T03:30:33;-3.60;99.90
15259;DHT22;34462;51.368;12.364;2022-11-20T03:33:04;-3.60;99.90
15259;DHT22;34462;51.368;12.364;2022-11-20T03:35:32;-3.40;99.90
15259;DHT22;34462;51.368;12.364;2022-11-20T03:38:00;-3.50;99.90
15259;DHT22;34462;51.368;12.364;2022-11-20T03:40:28;-3.60;99.90
15259;DHT22;34462;51.368;12.364;2022-11-20T03:42:56;-3.60;99.90
15259;DHT22;34462;51.368;12.364;2022-11-20T03:45:24;-3.60;99.90
15259;DHT22;34462;51.368;12.364;2022-11-20T03:47:52;-3.60;99.90
15259;DHT22;34462;51.368;12.364;2022-11-20T03:50:22;-3.50;99.90
15259;DHT22;34462;51.368;12.364;2022-11-20T03:52:50;-3.50;99.90
15259;DHT22;34462;51.368;12.364;2022-11-20T03:55:18;-3.60;99.90
15259;DHT22;34462;51.368;12.364;2022-11-20T03:57:46;-3.50;99.90
15259;DHT22;34462;51.368;12.364;2022-11-20T04:00:15;-3.50;99.90
15259;DHT22;34462;51.368;12.364;2022-11-20T04:02:43;-3.60;99.90
15259;DHT22;34462;51.368;12.364;2022-11-20T04:05:11;-3.60;99.90
15259;DHT22;34462;51.368;12.364;2022-11-20T04:07:41;-3.60;99.90
15259;DHT22;34462;51.368;12.364;2022-11-20T04:10:09;-3.50;99.90
15259;DHT22;34462;51.368;12.364;2022-11-20T04:12:37;-3.50;99.90
15259;DHT22;34462;51.368;12.364;2022-11-20T04:15:06;-3.50;99.90
15259;DHT22;34462;51.368;12.364;2022-11-20T04:17:35;-3.60;99.90
15259;DHT22;34462;51.368;12.364;2022-11-20T04:20:04;-3.50;99.90
15259;DHT22;34462;51.368;12.364;2022-11-20T04:22:33;-3.60;99.90
15259;DHT22;34462;51.368;12.364;2022-11-20T04:25:02;-3.70;99.90
15259;DHT22;34462;51.368;12.364;2022-11-20T04:27:31;-3.70;99.90
15259;DHT22;34462;51.368;12.364;2022-11-20T04:29:59;-3.70;99.90
15259;DHT22;34462;51.368;12.364;2022-11-20T04:32:28;-3.80;99.90
15259;DHT22;34462;51.368;12.364;2022-11-20T04:34:56;-3.80;99.90
15259;DHT22;34462;51.368;12.364;2022-11-20T04:37:24;-3.80;99.90
15259;DHT22;34462;51.368;12.364;2022-11-20T04:39:52;-3.80;99.90
15259;DHT22;34462;51.368;12.364;2022-11-20T04:42:21;-3.70;99.90
15259;DHT22;34462;51.368;12.364;2022-11-20T04:44:56;-3.70;99.90
15259;DHT22;34462;51.368;12.364;2022-11-20T04:47:24;-3.60;99.90
15259;DHT22;34462;51.368;12.364;2022-11-20T04:49:52;-3.70;99.90
15259;DHT22;34462;51.368;12.364;2022-11-20T04:52:20;-3.80;99.90
15259;DHT22;34462;51.368;12.364;2022-11-20T04:54:49;-3.70;99.90
15259;DHT22;34462;51.368;12.364;2022-11-20T04:57:20;-3.80;99.90
15259;DHT22;34462;51.368;12.364;2022-11-20T04:59:49;-3.80;99.90
15259;DHT22;34462;51.368;12.364;2022-11-20T05:02:17;-3.80;99.90
15259;DHT22;34462;51.368;12.364;2022-11-20T05:04:45;-3.80;99.90
15259;DHT22;34462;51.368;12.364;2022-11-20T05:07:13;-3.80;99.90
15259;DHT22;34462;51.368;12.364;2022-11-20T05:09:42;-3.80;99.90
15259;DHT22;34462;51.368;12.364;2022-11-20T05:12:10;-3.80;99.90
15259;DHT22;34462;51.368;12.364;2022-11-20T05:14:39;-3.70;99.90
15259;DHT22;34462;51.368;12.364;2022-11-20T05:17:10;-3.70;99.90
15259;DHT22;34462;51.368;12.364;2022-11-20T05:19:39;-3.80;99.90
15259;DHT22;34462;51.368;12.364;2022-11-20T05:22:07;-3.80;99.90
15259;DHT22;34462;51.368;12.364;2022-11-20T05:24:35;-3.80;99.90
15259;DHT22;34462;51.368;12.364;2022-11-20T05:27:03;-3.80;99.90
15259;DHT22;34462;51.368;12.364;2022-11-20T05:29:31;-3.80;99.90
15259;DHT22;34462;51.368;12.364;2022-11-20T05:32:01;-3.80;99.90
15259;DHT22;34462;51.368;12.364;2022-11-20T05:34:29;-3.80;99.90
15259;DHT22;34462;51.368;12.364;2022-11-20T05:36:57;-3.90;99.90
15259;DHT22;34462;51.368;12.364;2022-11-20T05:39:25;-4.00;99.90
15259;DHT22;34462;51.368;12.364;2022-11-20T05:41:53;-3.90;99.90
15259;DHT22;34462;51.368;12.364;2022-11-20T05:44:35;-3.90;99.90
15259;DHT22;34462;51.368;12.364;2022-11-20T05:47:05;-3.90;99.90
15259;DHT22;34462;51.368;12.364;2022-11-20T05:49:33;-4.00;99.90
15259;DHT22;34462;51.368;12.364;2022-11-20T05:52:01;-4.00;99.90
15259;DHT22;34462;51.368;12.364;2022-11-20T05:54:30;-4.00;99.90
15259;DHT22;34462;51.368;12.364;2022-11-20T05:56:58;-4.00;99.90
15259;DHT22;34462;51.368;12.364;2022-11-20T05:59:26;-4.00;99.90
15259;DHT22;34462;51.368;12.364;2022-11-20T06:01:55;-4.10;99.90
15259;DHT22;34462;51.368;12.364;2022-11-20T06:04:24;-4.10;99.90
15259;DHT22;34462;51.368;12.364;2022-11-20T06:06:52;-4.10;99.90
15259;DHT22;34462;51.368;12.364;2022-11-20T06:09:20;-4.10;99.90
15259;DHT22;34462;51.368;12.364;2022-11-20T06:11:49;-4.00;99.90
15259;DHT22;34462;51.368;12.364;2022-11-20T06:14:17;-4.10;99.90
15259;DHT22;34462;51.368;12.364;2022-11-20T06:16:45;-4.10;99.90
15259;DHT22;34462;51.368;12.364;2022-11-20T06:19:13;-4.10;99.90
15259;DHT22;34462;51.368;12.364;2022-11-20T06:21:43;-4.10;99.90
15259;DHT22;34462;51.368;12.364;2022-11-20T06:24:12;-4.10;99.90
15259;DHT22;34462;51.368;12.364;2022-11-20T06:26:40;-4.10;99.90
15259;DHT22;34462;51.368;12.364;2022-11-20T06:29:08;-4.20;99.90
15259;DHT22;34462;51.368;12.364;2022-11-20T06:31:37;-4.20;99.90
15259;DHT22;34462;51.368;12.364;2022-11-20T06:34:05;-4.20;99.90
15259;DHT22;34462;51.368;12.364;2022-11-20T06:36:34;-4.20;99.90
15259;DHT22;34462;51.368;12.364;2022-11-20T06:39:03;-4.20;99.90
15259;DHT22;34462;51.368;12.364;2022-11-20T06:41:31;-4.20;99.90
15259;DHT22;34462;51.368;12.364;2022-11-20T06:44:00;-4.20;99.90
15259;DHT22;34462;51.368;12.364;2022-11-20T06:46:28;-4.10;99.90
15259;DHT22;34462;51.368;12.364;2022-11-20T06:48:56;-3.80;99.90
15259;DHT22;34462;51.368;12.364;2022-11-20T06:51:24;-4.00;99.90
15259;DHT22;34462;51.368;12.364;2022-11-20T06:53:53;-4.10;99.90
15259;DHT22;34462;51.368;12.364;2022-11-20T06:56:22;-4.10;99.90
15259;DHT22;34462;51.368;12.364;2022-11-20T06:58:51;-4.00;99.90
15259;DHT22;34462;51.368;12.364;2022-11-20T07:01:19;-4.00;99.90
15259;DHT22;34462;51.368;12.364;2022-11-20T07:03:49;-3.90;99.90
15259;DHT22;34462;51.368;12.364;2022-11-20T07:06:20;-3.90;99.90
15259;DHT22;34462;51.368;12.364;2022-11-20T07:08:50;-3.90;99.90
15259;DHT22;34462;51.368;12.364;2022-11-20T07:11:19;-3.80;99.90
15259;DHT22;34462;51.368;12.364;2022-11-20T07:13:49;-3.80;99.90
15259;DHT22;34462;51.368;12.364;2022-11-20T07:16:17;-3.80;99.90
15259;DHT22;34462;51.368;12.364;2022-11-20T07:18:46;-3.80;99.90
15259;DHT22;34462;51.368;12.364;2022-11-20T07:21:17;-3.80;99.90
15259;DHT22;34462;51.368;12.364;2022-11-20T07:23:45;-3.80;99.90
15259;DHT22;34462;51.368;12.364;2022-11-20T07:26:14;-3.70;99.90
15259;DHT22;34462;51.368;12.364;2022-11-20T07:28:44;-3.70;99.90
15259;DHT22;34462;51.368;12.364;2022-11-20T07:31:14;-3.70;99.90
15259;DHT22;34462;51.368;12.364;2022-11-20T07:33:45;-3.70;99.90
15259;DHT22;34462;51.368;12.364;2022-11-20T07:36:13;-3.60;99.90
15259;DHT22;34462;51.368;12.364;2022-11-20T07:38:41;-3.60;99.90
15259;DHT22;34462;51.368;12.364;2022-11-20T07:41:09;-3.50;99.90
15259;DHT22;34462;51.368;12.364;2022-11-20T07:43:37;-3.50;99.90
15259;DHT22;34462;51.368;12.364;2022-11-20T07:46:07;-3.40;99.90
15259;DHT22;34462;51.368;12.364;2022-11-20T07:48:36;-3.30;99.90
15259;DHT22;34462;51.368;12.364;2022-11-20T07:51:05;-3.30;99.90
15259;DHT22;34462;51.368;12.364;2022-11-20T07:53:33;-3.20;99.90
15259;DHT22;34462;51.368;12.364;2022-11-20T07:56:02;-3.10;99.90
15259;DHT22;34462;51.368;12.364;2022-11-20T07:58:31;-3.10;99.90
15259;DHT22;34462;51.368;12.364;2022-11-20T08:01:04;-3.20;99.90
15259;DHT22;34462;51.368;12.364;2022-11-20T08:03:34;-3.10;99.90
15259;DHT22;34462;51.368;12.364;2022-11-20T08:06:06;-3.00;99.90
15259;DHT22;34462;51.368;12.364;2022-11-20T08:08:35;-3.00;99.90
15259;DHT22;34462;51.368;12.364;2022-11-20T08:11:08;-2.90;99.90
15259;DHT22;34462;51.368;12.364;2022-11-20T08:13:54;-2.80;99.90
15259;DHT22;34462;51.368;12.364;2022-11-20T08:16:42;-2.70;99.90
15259;DHT22;34462;51.368;12.364;2022-11-20T08:19:11;-2.70;99.90
15259;DHT22;34462;51.368;12.364;2022-11-20T08:21:41;-2.60;99.90
15259;DHT22;34462;51.368;12.364;2022-11-20T08:24:10;-2.60;99.90
15259;DHT22;34462;51.368;12.364;2022-11-20T08:26:40;-2.50;99.90
15259;DHT22;34462;51.368;12.364;2022-11-20T08:29:09;-2.30;99.90
15259;DHT22;34462;51.368;12.364;2022-11-20T08:31:37;-2.20;99.90
15259;DHT22;34462;51.368;12.364;2022-11-20T08:34:05;-2.20;99.90
15259;DHT22;34462;51.368;12.364;2022-11-20T08:36:35;-2.10;99.90
15259;DHT22;34462;51.368;12.364;2022-11-20T08:39:05;-2.00;99.90
15259;DHT22;34462;51.368;12.364;2022-11-20T08:41:33;-1.90;99.90
15259;DHT22;34462;51.368;12.364;2022-11-20T08:44:05;-1.70;99.90
15259;DHT22;34462;51.368;12.364;2022-11-20T08:46:35;-1.70;99.90
15259;DHT22;34462;51.368;12.364;2022-11-20T08:49:06;-1.70;99.90
15259;DHT22;34462;51.368;12.364;2022-11-20T08:51:36;-1.80;99.90
15259;DHT22;34462;51.368;12.364;2022-11-20T08:54:06;-1.70;99.90
15259;DHT22;34462;51.368;12.364;2022-11-20T08:56:35;-1.70;99.90
15259;DHT22;34462;51.368;12.364;2022-11-20T08:59:03;-1.70;99.90
15259;DHT22;34462;51.368;12.364;2022-11-20T09:01:52;-1.60;99.90
15259;DHT22;34462;51.368;12.364;2022-11-20T09:04:20;-1.60;99.90
15259;DHT22;34462;51.368;12.364;2022-11-20T09:06:48;-1.50;99.90
15259;DHT22;34462;51.368;12.364;2022-11-20T09:09:18;-1.50;99.90
15259;DHT22;34462;51.368;12.364;2022-11-20T09:11:47;-1.50;99.90
15259;DHT22;34462;51.368;12.364;2022-11-20T09:14:16;-1.30;99.90
15259;DHT22;34462;51.368;12.364;2022-11-20T09:16:44;-1.20;99.90
15259;DHT22;34462;51.368;12.364;2022-11-20T09:19:13;-1.00;99.90
15259;DHT22;34462;51.368;12.364;2022-11-20T09:22:01;-0.90;99.90
15259;DHT22;34462;51.368;12.364;2022-11-20T09:24:31;-0.90;99.90
15259;DHT22;34462;51.368;12.364;2022-11-20T09:27:02;-0.90;99.90
15259;DHT22;34462;51.368;12.364;2022-11-20T09:29:31;-0.80;99.90
15259;DHT22;34462;51.368;12.364;2022-11-20T09:31:59;-0.80;99.90
15259;DHT22;34462;51.368;12.364;2022-11-20T09:34:27;-0.90;99.90
15259;DHT22;34462;51.368;12.364;2022-11-20T09:36:55;-0.80;99.90
15259;DHT22;34462;51.368;12.364;2022-11-20T09:39:28;-0.80;99.90
15259;DHT22;34462;51.368;12.364;2022-11-20T09:42:08;-0.70;99.90
15259;DHT22;34462;51.368;12.364;2022-11-20T09:45:02;-0.60;99.90
15259;DHT22;34462;51.368;12.364;2022-11-20T09:47:52;-0.60;99.90
15259;DHT22;34462;51.368;12.364;2022-11-20T09:50:33;-0.60;99.90
15259;DHT22;34462;51.368;12.364;2022-11-20T09:53:15;-0.50;99.90
15259;DHT22;34462;51.368;12.364;2022-11-20T09:55:50;-0.40;99.90
15259;DHT22;34462;51.368;12.364;2022-11-20T09:58:26;-0.50;99.90
15259;DHT22;34462;51.368;12.364;2022-11-20T10:01:04;-0.40;99.90
15259;DHT22;34462;51.368;12.364;2022-11-20T10:03:44;-0.30;99.90
15259;DHT22;34462;51.368;12.364;2022-11-20T10:06:24;-0.40;99.90
15259;DHT22;34462;51.368;12.364;2022-11-20T10:09:04;-0.40;99.90
15259;DHT22;34462;51.368;12.364;2022-11-20T10:11:48;-0.30;99.90
15259;DHT22;34462;51.368;12.364;2022-11-20T10:14:32;-0.30;99.90
15259;DHT22;34462;51.368;12.364;2022-11-20T10:17:16;-0.30;99.90
15259;DHT22;34462;51.368;12.364;2022-11-20T10:20:02;-0.40;99.90
15259;DHT22;34462;51.368;12.364;2022-11-20T10:22:54;-0.30;99.90
15259;DHT22;34462;51.368;12.364;2022-11-20T10:25:39;-0.30;99.90
15259;DHT22;34462;51.368;12.364;2022-11-20T10:28:27;-0.30;99.90
15259;DHT22;34462;51.368;12.364;2022-11-20T10:31:14;-0.30;99.90
15259;DHT22;34462;51.368;12.364;2022-11-20T10:33:54;-0.10;99.90
15259;DHT22;34462;51.368;12.364;2022-11-20T10:36:43;0.20;99.90
15259;DHT22;34462;51.368;12.364;2022-11-20T10:39:18;0.50;99.90
15259;DHT22;34462;51.368;12.364;2022-11-20T10:41:52;0.60;99.90
15259;DHT22;34462;51.368;12.364;2022-11-20T10:44:22;0.70;99.90
15259;DHT22;34462;51.368;12.364;2022-11-20T10:47:33;0.70;99.90
15259;DHT22;34462;51.368;12.364;2022-11-20T10:50:04;0.50;99.90
15259;DHT22;34462;51.368;12.364;2022-11-20T10:52:43;0.50;99.90
15259;DHT22;34462;51.368;12.364;2022-11-20T10:55:28;0.60;99.90
15259;DHT22;34462;51.368;12.364;2022-11-20T10:58:12;0.60;99.90
15259;DHT22;34462;51.368;12.364;2022-11-20T11:00:44;0.70;99.90
15259;DHT22;34462;51.368;12.364;2022-11-20T11:03:25;0.80;99.90
15259;DHT22;34462;51.368;12.364;2022-11-20T11:06:02;0.90;99.90
15259;DHT22;34462;51.368;12.364;2022-11-20T11:08:39;1.10;99.90
15259;DHT22;34462;51.368;12.364;2022-11-20T11:11:18;1.10;99.90
15259;DHT22;34462;51.368;12.364;2022-11-20T11:13:49;1.20;99.90
15259;DHT22;34462;51.368;12.364;2022-11-20T11:16:23;1.30;99.90
15259;DHT22;34462;51.368;12.364;2022-11-20T11:19:03;1.30;99.90
15259;DHT22;34462;51.368;12.364;2022-11-20T11:21:32;1.30;99.90
15259;DHT22;34462;51.368;12.364;2022-11-20T11:24:02;1.40;99.90
15259;DHT22;34462;51.368;12.364;2022-11-20T11:26:57;1.50;99.90
15259;DHT22;34462;51.368;12.364;2022-11-20T11:29:26;1.40;99.90
15259;DHT22;34462;51.368;12.364;2022-11-20T11:32:04;1.40;99.90
15259;DHT22;34462;51.368;12.364;2022-11-20T11:34:35;1.10;99.90
15259;DHT22;34462;51.368;12.364;2022-11-20T11:37:04;1.20;99.90
15259;DHT22;34462;51.368;12.364;2022-11-20T11:39:41;1.00;99.90
15259;DHT22;34462;51.368;12.364;2022-11-20T11:42:13;0.80;99.90
15259;DHT22;34462;51.368;12.364;2022-11-20T11:44:47;0.80;99.90
15259;DHT22;34462;51.368;12.364;2022-11-20T11:47:36;0.80;99.90
15259;DHT22;34462;51.368;12.364;2022-11-20T11:50:19;0.80;99.90
15259;DHT22;34462;51.368;12.364;2022-11-20T11:52:58;0.70;99.90
15259;DHT22;34462;51.368;12.364;2022-11-20T11:55:37;0.70;99.90
15259;DHT22;34462;51.368;12.364;2022-11-20T11:58:16;0.70;99.90
15259;DHT22;34462;51.368;12.364;2022-11-20T12:00:57;0.70;99.90
15259;DHT22;34462;51.368;12.364;2022-11-20T12:03:35;0.70;99.90
15259;DHT22;34462;51.368;12.364;2022-11-20T12:06:11;0.70;99.90
15259;DHT22;34462;51.368;12.364;2022-11-20T12:08:46;0.80;99.90
15259;DHT22;34462;51.368;12.364;2022-11-20T12:11:32;0.80;99.90
15259;DHT22;34462;51.368;12.364;2022-11-20T12:14:11;0.80;99.90
15259;DHT22;34462;51.368;12.364;2022-11-20T12:16:43;0.90;99.90
15259;DHT22;34462;51.368;12.364;2022-11-20T12:19:13;0.80;99.90
15259;DHT22;34462;51.368;12.364;2022-11-20T12:21:54;0.90;99.90
15259;DHT22;34462;51.368;12.364;2022-11-20T12:24:53;0.90;99.90
15259;DHT22;34462;51.368;12.364;2022-11-20T12:30:54;1.00;99.90
15259;DHT22;34462;51.368;12.364;2022-11-20T12:33:50;1.10;99.90
15259;DHT22;34462;51.368;12.364;2022-11-20T12:36:38;1.30;99.90
15259;DHT22;34462;51.368;12.364;2022-11-20T12:39:33;1.40;99.90
15259;DHT22;34462;51.368;12.364;2022-11-20T12:45:40;1.80;99.90
15259;DHT22;34462;51.368;12.364;2022-11-20T12:48:38;1.90;99.90
15259;DHT22;34462;51.368;12.364;2022-11-20T12:51:25;1.70;99.90
15259;DHT22;34462;51.368;12.364;2022-11-20T12:54:39;1.60;99.90
15259;DHT22;34462;51.368;12.364;2022-11-20T12:57:21;1.40;99.90
15259;DHT22;34462;51.368;12.364;2022-11-20T13:00:06;1.40;99.90
15259;DHT22;34462;51.368;12.364;2022-11-20T13:02:51;1.40;99.90
15259;DHT22;34462;51.368;12.364;2022-11-20T13:05:46;1.30;99.90
15259;DHT22;34462;51.368;12.364;2022-11-20T13:08:25;1.30;99.90
15259;DHT22;34462;51.368;12.364;2022-11-20T13:11:01;1.30;99.90
15259;DHT22;34462;51.368;12.364;2022-11-20T13:13:43;1.30;99.90
15259;DHT22;34462;51.368;12.364;2022-11-20T13:16:25;1.30;99.90
15259;DHT22;34462;51.368;12.364;2022-11-20T13:19:02;1.20;99.90
15259;DHT22;34462;51.368;12.364;2022-11-20T13:21:37;1.30;99.90
15259;DHT22;34462;51.368;12.364;2022-11-20T13:24:19;1.30;99.90
15259;DHT22;34462;51.368;12.364;2022-11-20T13:27:05;1.20;99.90
15259;DHT22;34462;51.368;12.364;2022-11-20T13:30:00;1.10;99.90
15259;DHT22;34462;51.368;12.364;2022-11-20T13:32:52;1.00;99.90
15259;DHT22;34462;51.368;12.364;2022-11-20T13:35:30;1.00;99.90
15259;DHT22;34462;51.368;12.364;2022-11-20T13:38:05;1.00;99.90
15259;DHT22;34462;51.368;12.364;2022-11-20T13:40:36;1.00;99.90
15259;DHT22;34462;51.368;12.364;2022-11-20T13:43:21;1.00;99.90
15259;DHT22;34462;51.368;12.364;2022-11-20T13:45:56;1.00;99.90
15259;DHT22;34462;51.368;12.364;2022-11-20T13:48:29;1.00;99.90
15259;DHT22;34462;51.368;12.364;2022-11-20T13:51:06;1.00;99.90
15259;DHT22;34462;51.368;12.364;2022-11-20T13:53:59;1.00;99.90
15259;DHT22;34462;51.368;12.364;2022-11-20T13:56:51;1.00;99.90
15259;DHT22;34462;51.368;12.364;2022-11-20T13:59:40;1.00;99.90
15259;DHT22;34462;51.368;12.364;2022-11-20T14:02:19;1.00;99.90
15259;DHT22;34462;51.368;12.364;2022-11-20T14:04:52;1.00;99.90
15259;DHT22;34462;51.368;12.364;2022-11-20T14:07:31;0.90;99.90
15259;DHT22;34462;51.368;12.364;2022-11-20T14:10:05;0.80;99.90
15259;DHT22;34462;51.368;12.364;2022-11-20T14:12:46;0.80;99.90
15259;DHT22;34462;51.368;12.364;2022-11-20T14:15:27;0.90;99.90
15259;DHT22;34462;51.368;12.364;2022-11-20T14:17:57;0.80;99.90
15259;DHT22;34462;51.368;12.364;2022-11-20T14:20:27;0.80;99.90
15259;DHT22;34462;51.368;12.364;2022-11-20T14:22:58;0.70;99.90
15259;DHT22;34462;51.368;12.364;2022-11-20T14:25:26;0.80;99.90
15259;DHT22;34462;51.368;12.364;2022-11-20T14:27:56;0.80;99.90
15259;DHT22;34462;51.368;12.364;2022-11-20T14:30:29;0.80;99.90
15259;DHT22;34462;51.368;12.364;2022-11-20T14:33:05;0.80;99.90
15259;DHT22;34462;51.368;12.364;2022-11-20T14:35:35;0.80;99.90
15259;DHT22;34462;51.368;12.364;2022-11-20T14:38:10;0.80;99.90
15259;DHT22;34462;51.368;12.364;2022-11-20T14:40:41;0.90;99.90
15259;DHT22;34462;51.368;12.364;2022-11-20T14:43:22;0.70;99.90
15259;DHT22;34462;51.368;12.364;2022-11-20T14:46:04;0.70;99.90
15259;DHT22;34462;51.368;12.364;2022-11-20T14:48:39;0.60;99.90
15259;DHT22;34462;51.368;12.364;2022-11-20T14:51:11;0.50;99.90
15259;DHT22;34462;51.368;12.364;2022-11-20T14:53:50;0.50;99.90
15259;DHT22;34462;51.368;12.364;2022-11-20T14:56:21;0.50;99.90
15259;DHT22;34462;51.368;12.364;2022-11-20T14:58:57;0.40;99.90
15259;DHT22;34462;51.368;12.364;2022-11-20T15:01:28;0.60;99.90
15259;DHT22;34462;51.368;12.364;2022-11-20T15:04:00;0.30;99.90
15259;DHT22;34462;51.368;12.364;2022-11-20T15:06:29;0.20;99.90
15259;DHT22;34462;51.368;12.364;2022-11-20T15:08:58;0.20;99.90
15259;DHT22;34462;51.368;12.364;2022-11-20T15:11:29;0.20;99.90
15259;DHT22;34462;51.368;12.364;2022-11-20T15:14:03;0.10;99.90
15259;DHT22;34462;51.368;12.364;2022-11-20T15:16:35;0.10;99.90
15259;DHT22;34462;51.368;12.364;2022-11-20T15:19:10;0.20;99.90
15259;DHT22;34462;51.368;12.364;2022-11-20T15:21:44;0.10;99.90
15259;DHT22;34462;51.368;12.364;2022-11-20T15:24:13;0.00;99.90
15259;DHT22;34462;51.368;12.364;2022-11-20T15:26:41;0.00;99.90
15259;DHT22;34462;51.368;12.364;2022-11-20T15:29:11;-0.10;99.90
15259;DHT22;34462;51.368;12.364;2022-11-20T15:31:42;0.00;99.90
15259;DHT22;34462;51.368;12.364;2022-11-20T15:34:14;0.00;99.90
15259;DHT22;34462;51.368;12.364;2022-11-20T15:36:43;-0.20;99.90
15259;DHT22;34462;51.368;12.364;2022-11-20T15:39:11;-0.20;99.90
15259;DHT22;34462;51.368;12.364;2022-11-20T15:41:40;-0.20;99.90
15259;DHT22;34462;51.368;12.364;2022-11-20T15:44:08;-0.30;99.90
15259;DHT22;34462;51.368;12.364;2022-11-20T15:46:38;-0.30;99.90
15259;DHT22;34462;51.368;12.364;2022-11-20T15:49:13;-0.30;99.90
15259;DHT22;34462;51.368;12.364;2022-11-20T15:51:44;-0.40;99.90
15259;DHT22;34462;51.368;12.364;2022-11-20T15:54:15;-0.40;99.90
15259;DHT22;34462;51.368;12.364;2022-11-20T15:56:47;-0.40;99.90
15259;DHT22;34462;51.368;12.364;2022-11-20T15:59:15;-0.40;99.90
15259;DHT22;34462;51.368;12.364;2022-11-20T16:01:43;-0.50;99.90
15259;DHT22;34462;51.368;12.364;2022-11-20T16:04:15;-0.50;99.90